createdAt,value
2022-07-26T00:02:05.811Z,3.27
2022-07-26T00:04:34.082Z,3.60
2022-07-26T00:07:02.045Z,3.23
2022-07-26T00:09:29.962Z,2.90
2022-07-26T00:11:59.258Z,2.70
2022-07-26T00:14:27.222Z,3.10
2022-07-26T00:16:55.328Z,3.33
2022-07-26T00:19:40.829Z,3.77
2022-07-26T00:22:26.406Z,3.23
2022-07-26T00:25:11.906Z,3.00
2022-07-26T00:27:58.538Z,2.60
2022-07-26T00:30:26.607Z,3.53
2022-07-26T00:32:54.957Z,3.60
2022-07-26T00:35:23.062Z,2.90
2022-07-26T00:37:51.059Z,2.97
2022-07-26T00:40:19.503Z,3.20
2022-07-26T00:42:48.824Z,3.07
2022-07-26T00:45:18.162Z,3.00
2022-07-26T00:47:46.185Z,3.47
2022-07-26T00:50:16.830Z,3.30
2022-07-26T00:52:45.890Z,3.33
2022-07-26T00:55:15.183Z,3.00
2022-07-26T00:57:44.876Z,3.50
2022-07-26T01:00:17.252Z,3.60
2022-07-26T01:02:45.969Z,3.73
2022-07-26T01:05:13.973Z,3.30
2022-07-26T01:07:42.862Z,3.03
2022-07-26T01:10:13.078Z,3.10
2022-07-26T01:12:41.718Z,3.60
2022-07-26T01:15:11.605Z,3.40
2022-07-26T01:17:41.460Z,3.37
2022-07-26T01:20:11.511Z,4.23
2022-07-26T01:22:41.410Z,4.00
2022-07-26T01:25:10.326Z,3.43
2022-07-26T01:27:40.060Z,3.50
2022-07-26T01:30:10.801Z,3.97
2022-07-26T01:32:39.476Z,3.93
2022-07-26T01:35:08.702Z,3.97
2022-07-26T01:37:36.612Z,3.93
2022-07-26T01:40:07.265Z,3.73
2022-07-26T01:42:36.433Z,3.97
2022-07-26T01:45:04.885Z,4.07
2022-07-26T01:47:32.825Z,4.20
2022-07-26T01:50:00.678Z,3.33
2022-07-26T01:52:29.038Z,3.50
2022-07-26T01:54:56.901Z,3.43
2022-07-26T01:57:27.174Z,4.33
2022-07-26T01:59:55.570Z,3.50
2022-07-26T02:02:23.518Z,3.50
2022-07-26T02:05:00.423Z,3.83
2022-07-26T02:07:28.792Z,3.63
2022-07-26T02:09:57.276Z,3.97
2022-07-26T02:12:27.595Z,4.00
2022-07-26T02:14:55.495Z,4.80
2022-07-26T02:17:38.554Z,3.90
2022-07-26T02:20:08.141Z,3.70
2022-07-26T02:22:36.832Z,3.67
2022-07-26T02:25:05.871Z,3.27
2022-07-26T02:27:35.128Z,4.00
2022-07-26T02:30:02.992Z,3.53
2022-07-26T02:32:30.909Z,3.57
2022-07-26T02:34:58.739Z,3.50
2022-07-26T02:37:26.580Z,3.57
2022-07-26T02:39:54.416Z,4.10
2022-07-26T02:42:22.276Z,4.30
2022-07-26T02:44:51.454Z,3.43
2022-07-26T02:47:19.316Z,4.10
2022-07-26T02:49:47.156Z,3.73
2022-07-26T02:52:14.985Z,3.80
2022-07-26T02:54:42.867Z,4.17
2022-07-26T02:57:10.852Z,3.67
2022-07-26T02:59:38.925Z,4.20
2022-07-26T03:02:08.426Z,4.23
2022-07-26T03:04:36.307Z,3.87
2022-07-26T03:07:04.223Z,3.87
2022-07-26T03:09:32.166Z,4.20
2022-07-26T03:12:00.040Z,3.67
2022-07-26T03:14:27.895Z,3.90
2022-07-26T03:16:55.752Z,4.13
2022-07-26T03:19:24.955Z,3.77
2022-07-26T03:21:52.814Z,3.93
2022-07-26T03:24:20.906Z,3.87
2022-07-26T03:26:49.468Z,4.20
2022-07-26T03:29:17.294Z,3.80
2022-07-26T03:31:45.214Z,3.80
2022-07-26T03:34:13.189Z,4.20
2022-07-26T03:36:43.871Z,3.53
2022-07-26T03:39:12.162Z,3.63
2022-07-26T03:41:40.118Z,4.00
2022-07-26T03:44:08.365Z,4.17
2022-07-26T03:46:36.626Z,4.03
2022-07-26T03:49:04.830Z,4.40
2022-07-26T03:51:33.890Z,3.40
2022-07-26T03:54:03.065Z,5.07
2022-07-26T03:56:31.764Z,3.90
2022-07-26T03:59:02.157Z,3.90
2022-07-26T04:01:30.617Z,3.60
2022-07-26T04:03:58.709Z,3.70
2022-07-26T04:06:27.199Z,4.00
2022-07-26T04:08:55.122Z,3.77
2022-07-26T04:11:27.663Z,4.00
2022-07-26T04:13:56.954Z,4.03
2022-07-26T04:16:25.570Z,4.70
2022-07-26T04:18:54.463Z,4.00
2022-07-26T04:21:22.589Z,4.13
2022-07-26T04:23:51.744Z,4.40
2022-07-26T04:26:21.077Z,5.00
2022-07-26T04:28:50.350Z,4.33
2022-07-26T04:31:18.856Z,4.33
2022-07-26T04:33:46.893Z,3.80
2022-07-26T04:36:14.822Z,4.10
2022-07-26T04:38:42.817Z,4.87
2022-07-26T04:41:10.822Z,4.20
2022-07-26T04:43:38.794Z,3.80
2022-07-26T04:46:08.220Z,4.57
2022-07-26T04:48:37.862Z,4.40
2022-07-26T04:51:06.147Z,4.40
2022-07-26T04:53:34.102Z,4.20
2022-07-26T04:56:02.049Z,4.50
2022-07-26T04:58:29.955Z,4.10
2022-07-26T05:01:13.169Z,4.60
2022-07-26T05:03:42.463Z,4.47
2022-07-26T05:06:10.604Z,4.57
2022-07-26T05:08:38.516Z,4.00
2022-07-26T05:11:06.525Z,4.23
2022-07-26T05:13:34.411Z,4.50
2022-07-26T05:16:02.326Z,4.43
2022-07-26T05:18:31.914Z,4.10
2022-07-26T05:21:13.351Z,4.77
2022-07-26T05:23:41.280Z,3.90
2022-07-26T05:26:09.206Z,4.43
2022-07-26T05:28:39.052Z,4.17
2022-07-26T05:31:07.361Z,22.33
2022-07-26T05:33:35.396Z,6.10
2022-07-26T05:36:03.351Z,4.83
2022-07-26T05:38:32.662Z,4.67
2022-07-26T05:41:00.608Z,4.43
2022-07-26T05:43:41.558Z,4.57
2022-07-26T05:46:11.162Z,4.93
2022-07-26T05:48:39.380Z,4.07
2022-07-26T05:51:07.469Z,4.10
2022-07-26T05:53:36.949Z,3.83
2022-07-26T05:56:05.934Z,3.80
2022-07-26T05:58:33.938Z,3.47
2022-07-26T06:01:01.908Z,4.20
2022-07-26T06:03:30.795Z,3.63
2022-07-26T06:05:59.709Z,3.50
2022-07-26T06:08:28.224Z,3.00
2022-07-26T06:10:57.761Z,2.67
2022-07-26T06:13:26.033Z,3.00
2022-07-26T06:15:54.148Z,2.97
2022-07-26T06:18:22.381Z,3.07
2022-07-26T06:20:51.327Z,3.30
2022-07-26T06:23:34.001Z,3.07
2022-07-26T06:26:05.008Z,3.13
2022-07-26T06:28:33.245Z,2.97
2022-07-26T06:31:01.365Z,3.37
2022-07-26T06:33:29.279Z,3.10
2022-07-26T06:35:57.179Z,3.30
2022-07-26T06:38:25.344Z,3.00
2022-07-26T06:40:53.223Z,2.97
2022-07-26T06:43:22.523Z,3.50
2022-07-26T06:45:50.631Z,2.70
2022-07-26T06:48:18.734Z,2.03
2022-07-26T06:50:46.652Z,3.10
2022-07-26T06:53:14.493Z,3.03
2022-07-26T06:55:43.986Z,2.80
2022-07-26T06:58:11.890Z,3.57
2022-07-26T07:00:41.191Z,3.07
2022-07-26T07:03:09.159Z,2.43
2022-07-26T07:05:37.064Z,2.43
2022-07-26T07:08:07.311Z,2.83
2022-07-26T07:10:35.410Z,2.33
2022-07-26T07:13:03.977Z,2.40
2022-07-26T07:15:32.073Z,3.00
2022-07-26T07:18:01.367Z,2.70
2022-07-26T07:20:29.439Z,2.63
2022-07-26T07:22:57.311Z,2.73
2022-07-26T07:25:30.699Z,2.47
2022-07-26T07:27:59.282Z,2.67
2022-07-26T07:30:28.035Z,2.70
2022-07-26T07:32:56.961Z,3.43
2022-07-26T07:35:31.908Z,2.93
2022-07-26T07:38:01.255Z,2.40
2022-07-26T07:40:30.239Z,2.97
2022-07-26T07:42:58.850Z,2.30
2022-07-26T07:45:26.795Z,2.63
2022-07-26T07:47:54.907Z,3.10
2022-07-26T07:50:22.802Z,2.50
2022-07-26T07:52:59.144Z,3.00
2022-07-26T07:55:44.038Z,2.73
2022-07-26T07:58:15.601Z,3.13
2022-07-26T08:00:45.504Z,2.90
2022-07-26T08:03:18.015Z,3.10
2022-07-26T08:05:50.008Z,2.77
2022-07-26T08:08:22.617Z,3.20
2022-07-26T08:10:52.753Z,3.30
2022-07-26T08:13:21.972Z,3.20
2022-07-26T08:15:50.674Z,3.33
2022-07-26T08:18:19.453Z,2.67
2022-07-26T08:20:51.163Z,2.97
2022-07-26T08:23:21.019Z,2.20
2022-07-26T08:25:56.609Z,2.60
2022-07-26T08:28:46.300Z,2.40
2022-07-26T08:31:13.742Z,2.30
2022-07-26T08:33:45.786Z,2.27
2022-07-26T08:36:15.349Z,2.20
2022-07-26T08:38:44.759Z,2.07
2022-07-26T08:41:15.476Z,1.90
2022-07-26T08:43:51.271Z,2.10
2022-07-26T08:46:24.807Z,1.83
2022-07-26T08:48:53.766Z,1.77
2022-07-26T08:51:24.248Z,1.50
2022-07-26T08:54:04.685Z,1.60
2022-07-26T08:56:35.019Z,1.50
2022-07-26T08:59:07.575Z,1.53
2022-07-26T09:01:35.809Z,1.70
2022-07-26T09:04:31.005Z,1.53
2022-07-26T09:07:03.193Z,1.40
2022-07-26T09:09:33.420Z,2.00
2022-07-26T09:12:15.819Z,1.60
2022-07-26T09:14:46.571Z,1.53
2022-07-26T09:17:15.375Z,1.67
2022-07-26T09:19:43.315Z,1.47
2022-07-26T09:22:13.434Z,1.60
2022-07-26T09:24:44.260Z,1.27
2022-07-26T09:27:13.963Z,1.20
2022-07-26T09:29:49.971Z,1.40
2022-07-26T09:32:19.943Z,1.70
2022-07-26T09:34:53.002Z,1.97
2022-07-26T09:37:34.084Z,1.50
2022-07-26T09:40:06.149Z,1.30
2022-07-26T09:42:34.087Z,1.60
2022-07-26T09:45:02.657Z,1.50
2022-07-26T09:47:37.892Z,1.40
2022-07-26T09:50:16.430Z,1.40
2022-07-26T09:52:59.217Z,1.50
2022-07-26T09:55:36.378Z,1.17
2022-07-26T09:58:11.199Z,1.17
2022-07-26T10:00:45.320Z,1.10
2022-07-26T10:03:13.800Z,1.40
2022-07-26T10:05:42.394Z,1.50
2022-07-26T10:08:10.853Z,1.50
2022-07-26T10:10:45.918Z,1.30
2022-07-26T10:13:14.247Z,1.10
2022-07-26T10:15:44.601Z,1.40
2022-07-26T10:18:46.027Z,1.30
2022-07-26T10:21:20.418Z,1.30
2022-07-26T10:23:49.347Z,1.20
2022-07-26T10:26:38.647Z,1.53
2022-07-26T10:29:29.403Z,1.40
2022-07-26T10:32:21.270Z,1.17
2022-07-26T10:34:50.643Z,1.40
2022-07-26T10:37:28.026Z,1.50
2022-07-26T10:40:18.708Z,1.77
2022-07-26T10:42:48.100Z,1.23
2022-07-26T10:45:23.877Z,1.20
2022-07-26T10:48:15.286Z,1.33
2022-07-26T10:50:44.940Z,1.30
2022-07-26T10:53:19.604Z,1.10
2022-07-26T10:55:49.811Z,1.23
2022-07-26T10:58:19.290Z,1.20
2022-07-26T11:00:58.725Z,1.00
2022-07-26T11:03:27.018Z,1.13
2022-07-26T11:05:54.905Z,1.10
2022-07-26T11:08:30.632Z,1.00
2022-07-26T11:10:58.585Z,1.07
2022-07-26T11:13:28.894Z,1.33
2022-07-26T11:16:02.451Z,1.30
2022-07-26T11:18:35.189Z,1.17
2022-07-26T11:21:11.054Z,0.97
2022-07-26T11:23:41.047Z,0.77
2022-07-26T11:26:14.684Z,0.90
2022-07-26T11:28:53.469Z,1.10
2022-07-26T11:31:49.660Z,1.27
2022-07-26T11:34:18.736Z,1.23
2022-07-26T11:36:47.557Z,1.20
2022-07-26T11:39:21.271Z,1.13
2022-07-26T11:41:49.577Z,1.10
2022-07-26T11:44:20.773Z,1.10
2022-07-26T11:46:49.736Z,1.20
2022-07-26T11:49:19.700Z,1.13
2022-07-26T11:51:52.520Z,1.10
2022-07-26T11:54:20.720Z,1.37
2022-07-26T11:56:56.384Z,1.47
2022-07-26T11:59:28.824Z,1.53
2022-07-26T12:01:58.058Z,2.00
2022-07-26T12:04:27.866Z,1.57
2022-07-26T12:06:58.828Z,1.10
2022-07-26T12:09:34.730Z,1.60
2022-07-26T12:12:03.734Z,1.30
2022-07-26T12:14:34.530Z,1.30
2022-07-26T12:17:12.686Z,1.80
2022-07-26T12:19:41.259Z,1.43
2022-07-26T12:22:12.361Z,1.20
2022-07-26T12:24:47.215Z,1.30
2022-07-26T12:27:19.585Z,1.13
2022-07-26T12:29:51.155Z,1.20
2022-07-26T12:32:20.883Z,1.30
2022-07-26T12:35:00.118Z,1.47
2022-07-26T12:37:37.859Z,1.37
2022-07-26T12:40:11.036Z,1.40
2022-07-26T12:42:40.230Z,1.40
2022-07-26T12:45:11.387Z,1.40
2022-07-26T12:47:40.852Z,1.43
2022-07-26T12:50:10.592Z,1.50
2022-07-26T12:52:40.107Z,1.40
2022-07-26T12:55:10.303Z,1.60
2022-07-26T12:57:38.233Z,1.20
2022-07-26T13:00:13.101Z,1.20
2022-07-26T13:02:43.007Z,1.23
2022-07-26T13:05:12.313Z,1.40
2022-07-26T13:07:40.857Z,1.50
2022-07-26T13:12:58.037Z,1.80
2022-07-26T13:15:37.387Z,1.10
2022-07-26T13:18:07.499Z,1.83
2022-07-26T13:20:35.657Z,1.27
2022-07-26T13:23:03.875Z,1.23
2022-07-26T13:25:34.042Z,1.47
2022-07-26T13:28:08.516Z,1.13
2022-07-26T13:30:42.885Z,1.30
2022-07-26T13:33:11.504Z,1.17
2022-07-26T13:35:41.038Z,1.47
2022-07-26T13:38:09.426Z,1.60
2022-07-26T13:40:37.410Z,1.30
2022-07-26T13:43:06.365Z,1.60
2022-07-26T13:45:34.466Z,1.50
2022-07-26T13:48:03.930Z,1.27
2022-07-26T13:50:32.015Z,1.57
2022-07-26T13:53:00.403Z,2.07
2022-07-26T13:55:28.340Z,1.50
2022-07-26T13:57:57.866Z,1.37
2022-07-26T14:00:27.677Z,1.43
2022-07-26T14:02:55.830Z,1.30
2022-07-26T14:05:32.959Z,1.47
2022-07-26T14:08:00.869Z,1.40
2022-07-26T14:10:28.799Z,1.40
2022-07-26T14:12:56.716Z,1.60
2022-07-26T14:15:24.740Z,1.40
2022-07-26T14:17:53.206Z,1.23
2022-07-26T14:20:21.843Z,1.40
2022-07-26T14:22:53.465Z,1.47
2022-07-26T14:25:21.913Z,1.27
2022-07-26T14:27:50.432Z,0.93
2022-07-26T14:30:18.329Z,0.93
2022-07-26T14:32:47.003Z,1.13
2022-07-26T14:35:16.463Z,1.90
2022-07-26T14:37:45.668Z,1.50
2022-07-26T14:40:17.420Z,1.43
2022-07-26T14:42:46.651Z,1.30
2022-07-26T14:45:15.279Z,1.20
2022-07-26T14:47:43.771Z,1.50
2022-07-26T14:50:13.421Z,1.40
2022-07-26T14:52:42.141Z,1.60
2022-07-26T14:55:10.826Z,1.50
2022-07-26T14:57:40.678Z,1.53
2022-07-26T15:00:11.752Z,1.57
2022-07-26T15:02:41.269Z,1.63
2022-07-26T15:05:09.991Z,1.47
2022-07-26T15:07:38.274Z,1.87
2022-07-26T15:10:08.102Z,1.40
2022-07-26T15:12:36.016Z,1.30
2022-07-26T15:15:07.209Z,1.47
2022-07-26T15:17:35.435Z,1.40
2022-07-26T15:20:04.644Z,1.77
2022-07-26T15:22:32.663Z,1.30
2022-07-26T15:25:00.610Z,1.43
2022-07-26T15:27:28.583Z,1.77
2022-07-26T15:30:03.052Z,1.70
2022-07-26T15:32:34.251Z,1.53
2022-07-26T15:35:02.272Z,1.63
2022-07-26T15:37:30.237Z,1.60
2022-07-26T15:39:58.944Z,1.10
2022-07-26T15:42:26.874Z,1.33
2022-07-26T15:44:55.924Z,1.40
2022-07-26T15:47:53.012Z,1.40
2022-07-26T15:50:15.580Z,1.60
2022-07-26T15:52:45.383Z,1.70
2022-07-26T15:55:16.812Z,1.43
2022-07-26T15:57:45.338Z,2.83
2022-07-26T16:00:15.114Z,1.00
2022-07-26T16:02:43.291Z,1.50
2022-07-26T16:05:13.058Z,1.23
2022-07-26T16:07:42.217Z,1.40
2022-07-26T16:10:12.225Z,1.13
2022-07-26T16:12:41.249Z,1.37
2022-07-26T16:15:11.357Z,1.47
2022-07-26T16:17:39.662Z,1.40
2022-07-26T16:20:09.588Z,1.60
2022-07-26T16:22:41.013Z,1.70
2022-07-26T16:25:12.532Z,1.80
2022-07-26T16:27:40.829Z,1.40
2022-07-26T16:30:10.139Z,1.70
2022-07-26T16:32:38.139Z,1.50
2022-07-26T16:35:07.087Z,1.47
2022-07-26T16:37:35.141Z,3.40
2022-07-26T16:40:05.325Z,2.40
2022-07-26T16:42:33.366Z,3.50
2022-07-26T16:45:02.387Z,1.70
2022-07-26T16:47:31.290Z,1.90
2022-07-26T16:49:59.268Z,1.67
2022-07-26T16:52:27.262Z,2.30
2022-07-26T16:54:55.205Z,1.50
2022-07-26T16:57:24.425Z,1.63
2022-07-26T16:59:52.435Z,1.70
2022-07-26T17:02:20.341Z,1.37
2022-07-26T17:04:48.379Z,1.53
2022-07-26T17:07:25.614Z,1.47
2022-07-26T17:09:54.803Z,1.77
2022-07-26T17:12:24.787Z,1.67
2022-07-26T17:14:52.784Z,1.93
2022-07-26T17:17:20.801Z,1.90
2022-07-26T17:19:48.792Z,1.60
2022-07-26T17:22:17.498Z,1.50
2022-07-26T17:24:45.449Z,2.53
2022-07-26T17:27:13.653Z,2.20
2022-07-26T17:29:42.928Z,2.93
2022-07-26T17:32:11.541Z,2.10
2022-07-26T17:34:40.099Z,1.93
2022-07-26T17:37:10.119Z,1.73
2022-07-26T17:39:52.528Z,1.37
2022-07-26T17:42:21.841Z,1.70
2022-07-26T17:44:51.372Z,1.30
2022-07-26T17:47:29.613Z,1.80
2022-07-26T17:50:14.181Z,1.47
2022-07-26T17:52:48.242Z,1.43
2022-07-26T17:55:18.291Z,1.57
2022-07-26T17:57:46.531Z,1.90
2022-07-26T18:00:17.133Z,1.50
2022-07-26T18:02:45.055Z,1.60
2022-07-26T18:05:13.054Z,1.30
2022-07-26T18:07:41.374Z,1.40
2022-07-26T18:10:11.483Z,1.90
2022-07-26T18:12:39.472Z,1.60
2022-07-26T18:15:08.538Z,1.90
2022-07-26T18:17:38.091Z,1.90
2022-07-26T18:20:07.159Z,1.80
2022-07-26T18:22:35.274Z,2.43
2022-07-26T18:25:03.852Z,1.40
2022-07-26T18:27:31.893Z,1.80
2022-07-26T18:30:00.468Z,1.83
2022-07-26T18:32:28.569Z,1.70
2022-07-26T18:34:57.791Z,1.40
2022-07-26T18:37:25.754Z,8.83
2022-07-26T18:39:57.526Z,2.47
2022-07-26T18:42:26.271Z,2.20
2022-07-26T18:44:54.191Z,1.30
2022-07-26T18:47:22.714Z,1.70
2022-07-26T18:49:50.813Z,1.50
2022-07-26T18:52:28.726Z,1.30
2022-07-26T18:55:01.845Z,1.50
2022-07-26T18:57:29.746Z,1.43
2022-07-26T18:59:57.621Z,2.20
2022-07-26T19:02:25.642Z,2.00
2022-07-26T19:04:53.796Z,1.90
2022-07-26T19:07:23.075Z,1.80
2022-07-26T19:09:54.955Z,1.63
2022-07-26T19:12:25.938Z,2.27
2022-07-26T19:14:53.940Z,2.17
2022-07-26T19:17:22.156Z,2.60
2022-07-26T19:19:50.148Z,4.20
2022-07-26T19:22:18.033Z,3.83
2022-07-26T19:24:47.348Z,3.47
2022-07-26T19:27:15.938Z,2.13
2022-07-26T19:29:44.260Z,1.87
2022-07-26T19:32:12.171Z,2.10
2022-07-26T19:34:40.041Z,2.13
2022-07-26T19:37:07.954Z,1.93
2022-07-26T19:39:35.862Z,1.93
2022-07-26T19:42:05.582Z,2.07
2022-07-26T19:44:33.540Z,1.90
2022-07-26T19:47:01.516Z,2.00
2022-07-26T19:49:29.739Z,1.80
2022-07-26T19:51:57.731Z,1.57
2022-07-26T19:54:25.693Z,1.57
2022-07-26T19:56:54.101Z,1.87
2022-07-26T19:59:24.340Z,1.93
2022-07-26T20:01:55.142Z,1.80
2022-07-26T20:04:26.193Z,1.60
2022-07-26T20:06:55.073Z,1.93
2022-07-26T20:09:23.107Z,1.53
2022-07-26T20:11:51.794Z,2.23
2022-07-26T20:14:20.092Z,1.40
2022-07-26T20:16:54.304Z,1.53
2022-07-26T20:19:24.520Z,1.93
2022-07-26T20:21:52.432Z,1.83
2022-07-26T20:24:20.615Z,2.30
2022-07-26T20:26:48.819Z,2.60
2022-07-26T20:29:16.820Z,2.30
2022-07-26T20:31:44.961Z,2.50
2022-07-26T20:34:14.232Z,3.10
2022-07-26T20:36:42.215Z,3.43
2022-07-26T20:39:10.824Z,3.20
2022-07-26T20:41:39.140Z,3.30
2022-07-26T20:44:07.250Z,3.00
2022-07-26T20:46:39.849Z,3.10
2022-07-26T20:49:09.347Z,4.10
2022-07-26T20:51:39.463Z,3.50
2022-07-26T20:54:08.507Z,2.90
2022-07-26T20:56:36.853Z,2.33
2022-07-26T20:59:05.402Z,2.97
2022-07-26T21:01:34.593Z,2.90
2022-07-26T21:04:02.714Z,4.20
2022-07-26T21:06:33.094Z,3.83
2022-07-26T21:09:08.893Z,4.13
2022-07-26T21:11:38.153Z,3.50
2022-07-26T21:14:06.363Z,3.70
2022-07-26T21:16:34.471Z,4.10
2022-07-26T21:19:02.633Z,3.70
2022-07-26T21:21:30.710Z,3.97
2022-07-26T21:23:58.678Z,3.50
2022-07-26T21:26:28.038Z,3.80
2022-07-26T21:28:56.161Z,3.83
2022-07-26T21:31:24.212Z,3.50
2022-07-26T21:33:52.194Z,3.70
2022-07-26T21:36:20.304Z,3.20
2022-07-26T21:38:48.353Z,3.00
2022-07-26T21:41:16.370Z,3.80
2022-07-26T21:43:45.806Z,3.40
2022-07-26T21:46:14.116Z,3.20
2022-07-26T21:48:42.606Z,3.33
2022-07-26T21:51:10.592Z,3.60
2022-07-26T21:53:38.660Z,3.50
2022-07-26T21:56:06.735Z,3.60
2022-07-26T21:58:36.769Z,3.23
2022-07-26T22:01:07.469Z,3.60
2022-07-26T22:03:37.146Z,3.57
2022-07-26T22:06:06.408Z,4.10
2022-07-26T22:08:34.859Z,3.70
2022-07-26T22:11:03.191Z,4.13
2022-07-26T22:13:31.476Z,4.30
2022-07-26T22:15:59.367Z,4.00
2022-07-26T22:18:29.116Z,4.30
2022-07-26T22:20:57.342Z,3.93
2022-07-26T22:23:29.986Z,3.63
2022-07-26T22:25:58.951Z,4.13
2022-07-26T22:28:27.159Z,4.10
2022-07-26T22:30:55.569Z,3.63
2022-07-26T22:33:24.718Z,3.33
2022-07-26T22:35:54.342Z,4.73
2022-07-26T22:38:22.333Z,3.50
2022-07-26T22:40:51.138Z,3.70
2022-07-26T22:43:19.086Z,3.87
2022-07-26T22:45:47.008Z,4.00
2022-07-26T22:48:15.044Z,4.00
2022-07-26T22:50:43.036Z,3.40
2022-07-26T22:53:12.242Z,3.97
2022-07-26T22:55:40.181Z,4.10
2022-07-26T22:58:08.060Z,3.87
2022-07-26T23:00:36.008Z,4.00
2022-07-26T23:03:04.358Z,4.00
2022-07-26T23:05:45.123Z,4.27
2022-07-26T23:08:44.202Z,3.90
2022-07-26T23:11:03.908Z,3.93
2022-07-26T23:13:31.846Z,3.50
2022-07-26T23:16:01.127Z,4.10
2022-07-26T23:18:29.745Z,4.37
2022-07-26T23:20:57.728Z,4.57
2022-07-26T23:23:29.647Z,4.03
2022-07-26T23:25:59.082Z,3.70
2022-07-26T23:28:37.626Z,4.00
2022-07-26T23:31:08.043Z,3.70
2022-07-26T23:33:51.301Z,3.73
2022-07-26T23:36:22.122Z,4.10
2022-07-26T23:38:51.385Z,3.63
2022-07-26T23:41:19.893Z,3.60
2022-07-26T23:43:47.891Z,4.30
2022-07-26T23:46:15.939Z,3.43
2022-07-26T23:48:43.868Z,3.47
2022-07-26T23:51:11.840Z,3.47
2022-07-26T23:53:39.767Z,3.87
2022-07-26T23:56:08.967Z,4.67
2022-07-26T23:58:37.441Z,3.30
